Time;durP1;ratioP1;P1;durP2;ratioP2;P2;SDS_P1;SDS_P2;PMS_P1;PMS_P2;Temp;Humidity;BMP_temperature;BMP_pressure;BME280_temperature;BME280_humidity;BME280_pressure;Samples;Min_cycle;Max_cycle;Signal;HPM_P1;HPM_P2
2023/11/20 00:01:23;;;;;;;58.25;52.10;;;12.80;99.90;;;;;;4998416;28;20038;-69
2023/11/20 00:03:52;;;;;;;57.28;50.78;;;12.80;99.90;;;;;;4998996;28;20049;-69
2023/11/20 00:06:19;;;;;;;59.42;52.63;;;12.80;99.90;;;;;;5007958;28;20048;-69
2023/11/20 00:08:45;;;;;;;56.47;50.55;;;12.80;99.90;;;;;;5018768;28;20380;-69
2023/11/20 00:11:13;;;;;;;62.30;55.95;;;12.80;99.90;;;;;;5016949;28;20042;-69
2023/11/20 00:13:39;;;;;;;56.88;51.08;;;12.90;99.90;;;;;;5018516;28;20038;-69
2023/11/20 00:16:06;;;;;;;62.88;55.42;;;12.90;99.90;;;;;;5017575;28;20052;-69
2023/11/20 00:18:32;;;;;;;56.10;50.58;;;12.90;99.90;;;;;;5018863;28;20529;-69
2023/11/20 00:20:58;;;;;;;54.30;46.38;;;12.90;99.90;;;;;;5017961;28;20033;-69
2023/11/20 00:23:24;;;;;;;60.78;46.10;;;12.90;99.90;;;;;;5018622;28;20056;-69
2023/11/20 00:25:50;;;;;;;54.28;46.30;;;12.80;99.90;;;;;;5007741;28;20043;-69
2023/11/20 00:28:16;;;;;;;47.55;42.38;;;12.80;99.90;;;;;;4998942;28;20034;-69
2023/11/20 00:30:42;;;;;;;49.03;44.10;;;12.80;99.90;;;;;;4997763;28;20022;-69
2023/11/20 00:33:09;;;;;;;48.17;40.10;;;12.80;99.90;;;;;;4998991;28;20030;-69
2023/11/20 00:35:35;;;;;;;54.95;40.63;;;12.80;99.90;;;;;;4999039;28;20054;-69
2023/11/20 00:38:02;;;;;;;46.90;40.13;;;12.80;99.90;;;;;;4999051;28;20038;-69
2023/11/20 00:40:28;;;;;;;50.28;37.35;;;12.80;99.90;;;;;;4998555;28;20050;-69
2023/11/20 00:42:54;;;;;;;47.88;40.60;;;12.70;99.90;;;;;;4998678;28;20042;-69
2023/11/20 00:45:20;;;;;;;42.53;36.85;;;12.70;99.90;;;;;;5008720;28;20037;-70
2023/11/20 00:47:46;;;;;;;40.58;35.88;;;12.60;99.90;;;;;;5016828;28;20042;-69
2023/11/20 00:50:12;;;;;;;50.72;40.63;;;12.60;99.90;;;;;;5017815;28;20040;-69
2023/11/20 00:52:39;;;;;;;51.42;37.85;;;12.60;99.90;;;;;;5014233;28;20458;-70
2023/11/20 00:55:10;;;;;;;54.15;37.95;;;12.60;99.90;;;;;;5013710;28;20046;-69
2023/11/20 00:57:36;;;;;;;;;;;12.50;99.90;;;;;;4996075;28;20046;-69
2023/11/20 01:00:04;;;;;;;40.33;29.20;;;12.50;99.90;;;;;;4994729;28;19910;-66
2023/11/20 01:02:30;;;;;;;46.22;29.88;;;12.50;99.90;;;;;;4994895;28;20030;-69
2023/11/20 01:04:56;;;;;;;44.00;32.25;;;12.50;99.90;;;;;;4993912;28;20034;-69
2023/11/20 01:07:22;;;;;;;42.20;33.78;;;12.50;99.90;;;;;;5012759;28;20025;-69
2023/11/20 01:09:48;;;;;;;45.00;40.38;;;12.50;99.90;;;;;;5013748;28;20034;-70
2023/11/20 01:12:15;;;;;;;54.97;40.97;;;12.60;99.90;;;;;;5014128;28;20022;-69
2023/11/20 01:14:41;;;;;;;48.80;40.45;;;12.60;99.90;;;;;;4996915;28;20045;-69
2023/11/20 01:17:07;;;;;;;49.60;38.85;;;12.60;99.90;;;;;;5012787;28;20034;-70
2023/11/20 01:19:33;;;;;;;46.80;42.15;;;12.60;99.90;;;;;;5013625;28;20038;-69
2023/11/20 01:21:59;;;;;;;46.78;41.95;;;12.70;99.90;;;;;;5013849;28;20467;-70
2023/11/20 01:24:25;;;;;;;46.75;38.10;;;12.70;99.90;;;;;;5013228;28;20065;-69
2023/11/20 01:26:53;;;;;;;43.95;39.05;;;12.60;99.90;;;;;;4994287;28;20046;-69
2023/11/20 01:29:20;;;;;;;44.17;37.97;;;12.60;99.90;;;;;;4994680;28;20034;-69
2023/11/20 01:31:46;;;;;;;47.60;42.88;;;12.60;99.90;;;;;;4976752;28;20034;-69
2023/11/20 01:34:12;;;;;;;47.13;39.42;;;12.50;99.90;;;;;;4994867;28;20479;-70
2023/11/20 01:36:38;;;;;;;45.50;40.80;;;12.60;99.90;;;;;;4994371;28;20472;-70
2023/11/20 01:39:04;;;;;;;44.58;39.42;;;12.50;99.90;;;;;;4994624;28;20026;-71
2023/11/20 01:41:30;;;;;;;40.95;36.58;;;12.50;99.90;;;;;;4994254;28;20038;-70
2023/11/20 01:43:56;;;;;;;48.47;39.60;;;12.50;99.90;;;;;;4994207;28;20364;-70
2023/11/20 01:46:22;;;;;;;49.00;42.70;;;12.40;99.90;;;;;;4992734;28;20069;-67
2023/11/20 01:48:48;;;;;;;46.42;41.75;;;12.40;99.90;;;;;;4993583;28;20407;-67
2023/11/20 01:51:15;;;;;;;47.88;34.58;;;12.40;99.90;;;;;;4994282;28;20030;-67
2023/11/20 01:53:41;;;;;;;41.85;31.90;;;12.40;99.90;;;;;;4993556;28;20483;-67
2023/11/20 01:56:08;;;;;;;42.17;31.92;;;12.50;99.90;;;;;;4992934;28;20046;-67
2023/11/20 01:58:34;;;;;;;41.83;32.70;;;12.50;99.90;;;;;;4993074;28;20050;-67
2023/11/20 02:01:00;;;;;;;47.13;32.65;;;12.50;99.90;;;;;;4976646;28;20041;-67
2023/11/20 02:03:26;;;;;;;40.45;30.23;;;12.50;99.90;;;;;;4992806;28;20396;-67
2023/11/20 02:05:52;;;;;;;40.85;33.50;;;12.50;99.90;;;;;;4992955;28;20049;-67
2023/11/20 02:08:18;;;;;;;40.03;30.83;;;12.50;99.90;;;;;;4994161;28;20380;-67
2023/11/20 02:10:44;;;;;;;39.95;29.52;;;12.50;99.90;;;;;;4993917;28;20041;-67
2023/11/20 02:13:10;;;;;;;49.42;32.83;;;12.50;99.90;;;;;;4992595;28;20498;-67
2023/11/20 02:15:36;;;;;;;37.05;29.77;;;12.40;99.90;;;;;;4993150;28;20057;-67
2023/11/20 02:18:03;;;;;;;43.30;38.22;;;12.40;99.90;;;;;;4993099;28;20030;-67
2023/11/20 02:20:29;;;;;;;42.53;38.13;;;12.40;99.90;;;;;;5007350;28;20038;-67
2023/11/20 02:22:55;;;;;;;47.05;42.08;;;12.40;99.90;;;;;;4995135;28;20041;-67
2023/11/20 02:25:21;;;;;;;44.42;39.42;;;12.40;99.90;;;;;;4996124;28;20046;-67
2023/11/20 02:28:07;;;;;;;41.05;35.53;;;12.40;99.90;;;;;;5012060;28;20037;-67
2023/11/20 02:30:34;;;;;;;47.47;37.97;;;12.40;99.90;;;;;;5011167;28;20056;-67
2023/11/20 02:33:00;;;;;;;40.67;35.60;;;12.50;99.90;;;;;;5012586;28;20029;-67
2023/11/20 02:35:26;;;;;;;49.53;38.40;;;12.50;99.90;;;;;;5013001;28;20447;-67
2023/11/20 02:37:53;;;;;;;44.13;39.47;;;12.50;99.90;;;;;;5012361;28;20049;-67
2023/11/20 02:40:19;;;;;;;46.72;35.60;;;12.40;99.90;;;;;;5012461;28;20411;-68
2023/11/20 02:42:46;;;;;;;39.55;35.00;;;12.40;99.90;;;;;;5013288;28;20566;-67
2023/11/20 02:45:12;;;;;;;44.45;37.10;;;12.40;99.90;;;;;;5012442;28;20045;-67
2023/11/20 02:47:38;;;;;;;41.58;34.42;;;12.30;99.90;;;;;;5012862;28;20575;-67
2023/11/20 02:50:05;;;;;;;41.05;33.20;;;12.30;99.90;;;;;;5012834;28;20034;-67
2023/11/20 02:52:31;;;;;;;38.10;32.90;;;12.30;99.90;;;;;;5012868;28;20362;-67
2023/11/20 02:54:59;;;;;;;42.90;35.63;;;12.40;99.90;;;;;;5012651;28;20040;-67
2023/11/20 02:57:28;;;;;;;43.17;36.83;;;12.40;99.90;;;;;;5012777;28;20042;-67
2023/11/20 02:59:54;;;;;;;43.88;36.22;;;12.40;99.90;;;;;;5012689;28;20062;-73
2023/11/20 03:02:20;;;;;;;49.83;40.60;;;12.30;99.90;;;;;;5011939;28;20034;-73
2023/11/20 03:04:46;;;;;;;46.15;41.30;;;12.30;99.90;;;;;;5013287;28;20041;-73
2023/11/20 03:07:14;;;;;;;47.25;41.83;;;12.40;99.90;;;;;;5012447;28;20475;-73
2023/11/20 03:09:40;;;;;;;48.85;43.83;;;12.40;99.90;;;;;;5012239;28;20045;-73
2023/11/20 03:12:07;;;;;;;54.80;42.97;;;12.40;99.90;;;;;;5012327;28;20034;-73
2023/11/20 03:14:33;;;;;;;44.40;37.95;;;12.30;99.90;;;;;;5012483;28;20049;-73
2023/11/20 03:16:59;;;;;;;50.10;38.88;;;12.30;99.90;;;;;;5011800;28;20521;-73
2023/11/20 03:19:25;;;;;;;51.67;43.63;;;12.20;99.90;;;;;;5012562;28;20042;-73
2023/11/20 03:21:51;;;;;;;51.47;43.78;;;12.20;99.90;;;;;;5012215;28;20117;-73
2023/11/20 03:24:17;;;;;;;59.50;53.20;;;12.20;99.90;;;;;;5012375;28;20049;-73
2023/11/20 03:26:43;;;;;;;61.40;44.78;;;12.10;99.90;;;;;;4994889;28;20141;-73
2023/11/20 03:29:10;;;;;;;65.03;51.00;;;12.10;99.90;;;;;;4993200;28;20035;-73
2023/11/20 03:31:36;;;;;;;50.70;45.20;;;12.20;99.90;;;;;;5003639;28;20104;-73
2023/11/20 03:34:03;;;;;;;51.92;46.80;;;12.20;99.90;;;;;;5012796;28;20526;-72
2023/11/20 03:36:30;;;;;;;49.10;44.22;;;12.20;99.90;;;;;;5012026;28;20061;-73
2023/11/20 03:38:57;;;;;;;43.17;38.47;;;12.10;99.90;;;;;;5011818;28;20040;-73
2023/11/20 03:41:23;;;;;;;50.35;44.95;;;12.10;99.90;;;;;;5012255;28;20037;-73
2023/11/20 03:43:50;;;;;;;51.28;45.63;;;12.10;99.90;;;;;;5012500;28;20463;-73
2023/11/20 03:46:16;;;;;;;46.88;41.92;;;12.10;99.90;;;;;;5011666;28;20034;-73
2023/11/20 03:48:42;;;;;;;47.30;42.90;;;12.20;99.90;;;;;;5012497;28;20026;-72
2023/11/20 03:51:08;;;;;;;46.95;41.17;;;12.10;99.90;;;;;;5011645;28;20034;-73
2023/11/20 03:53:34;;;;;;;51.63;46.42;;;12.10;99.90;;;;;;5012015;28;20029;-72
2023/11/20 03:56:00;;;;;;;50.22;45.47;;;12.10;99.90;;;;;;5011943;28;20041;-73
2023/11/20 03:58:26;;;;;;;47.28;42.72;;;12.10;99.90;;;;;;5012480;28;20041;-72
2023/11/20 04:00:52;;;;;;;47.03;42.13;;;12.20;99.90;;;;;;5011051;28;20042;-67
2023/11/20 04:03:19;;;;;;;49.65;44.47;;;12.20;99.90;;;;;;5011952;28;20038;-67
2023/11/20 04:05:45;;;;;;;49.80;44.78;;;12.20;99.90;;;;;;5011841;28;20025;-67
2023/11/20 04:08:11;;;;;;;48.53;41.65;;;12.10;99.90;;;;;;5012127;28;20395;-67
2023/11/20 04:10:38;;;;;;;49.35;44.10;;;12.20;99.90;;;;;;4998861;28;20043;-67
2023/11/20 04:13:04;;;;;;;47.33;42.40;;;12.20;99.90;;;;;;4992644;28;20049;-67
2023/11/20 04:15:30;;;;;;;46.90;42.05;;;12.20;99.90;;;;;;4992835;28;20053;-67
2023/11/20 04:17:56;;;;;;;49.38;44.30;;;12.30;99.90;;;;;;4993322;28;20427;-67
2023/11/20 04:20:22;;;;;;;47.20;42.28;;;12.20;99.90;;;;;;4990421;28;20026;-67
2023/11/20 04:22:49;;;;;;;44.47;39.83;;;12.20;99.90;;;;;;4991937;28;20399;-67
2023/11/20 04:25:15;;;;;;;50.33;44.00;;;12.20;99.90;;;;;;4984237;28;20376;-67
2023/11/20 04:27:41;;;;;;;50.65;45.55;;;12.20;99.90;;;;;;4995706;28;20035;-67
2023/11/20 04:30:08;;;;;;;55.80;50.20;;;12.20;99.90;;;;;;4995472;28;20476;-67
2023/11/20 04:32:34;;;;;;;46.03;41.63;;;12.20;99.90;;;;;;5003803;28;20471;-67
2023/11/20 04:35:00;;;;;;;49.40;40.33;;;12.20;99.90;;;;;;4995848;28;20045;-68
2023/11/20 04:37:26;;;;;;;43.92;39.63;;;12.20;99.90;;;;;;4995036;28;20423;-67
2023/11/20 04:39:52;;;;;;;43.92;37.70;;;12.20;99.90;;;;;;4995809;28;20041;-67
2023/11/20 04:42:18;;;;;;;44.95;40.25;;;12.20;99.90;;;;;;4995904;28;20042;-67
2023/11/20 04:44:44;;;;;;;41.03;36.70;;;12.20;99.90;;;;;;4995898;28;20484;-67
2023/11/20 04:47:11;;;;;;;38.78;35.00;;;12.20;99.90;;;;;;4994992;28;20030;-68
2023/11/20 04:49:39;;;;;;;44.85;39.33;;;12.30;99.90;;;;;;4995791;28;20075;-67
2023/11/20 04:52:06;;;;;;;42.10;38.45;;;12.30;99.90;;;;;;4994819;28;20051;-67
2023/11/20 04:54:34;;;;;;;41.72;37.92;;;12.30;99.90;;;;;;4986760;28;20038;-67
2023/11/20 04:57:01;;;;;;;40.28;36.25;;;12.30;99.90;;;;;;4995715;28;20058;-67
2023/11/20 04:59:27;;;;;;;44.95;39.35;;;12.30;99.90;;;;;;4995703;28;20038;-67
2023/11/20 05:01:53;;;;;;;42.20;37.88;;;12.30;99.90;;;;;;5011618;28;20411;-67
2023/11/20 05:04:22;;;;;;;40.78;36.72;;;12.30;99.90;;;;;;5011051;28;20040;-74
2023/11/20 05:06:48;;;;;;;41.80;37.40;;;12.20;99.90;;;;;;4995199;28;20050;-73
2023/11/20 05:09:16;;;;;;;41.45;37.60;;;12.30;99.90;;;;;;5006112;28;20045;-73
2023/11/20 05:11:42;;;;;;;47.80;43.53;;;12.40;99.90;;;;;;5014398;28;20509;-73
2023/11/20 05:14:08;;;;;;;47.03;39.67;;;12.40;99.90;;;;;;5013271;28;20466;-73
2023/11/20 05:16:34;;;;;;;41.83;37.88;;;12.40;99.90;;;;;;4994600;28;20061;-74
2023/11/20 05:19:02;;;;;;;38.42;34.72;;;12.40;99.90;;;;;;4998262;28;20023;-73
2023/11/20 05:21:28;;;;;;;42.65;38.25;;;12.40;99.90;;;;;;4998502;28;20046;-73
2023/11/20 05:23:54;;;;;;;46.83;42.58;;;12.40;99.90;;;;;;4993950;28;20046;-73
2023/11/20 05:26:21;;;;;;;45.83;41.05;;;12.40;99.90;;;;;;4994154;28;20062;-73
2023/11/20 05:28:50;;;;;;;41.88;37.85;;;12.30;99.90;;;;;;5000648;28;20030;-73
2023/11/20 05:31:16;;;;;;;41.95;37.78;;;12.30;99.90;;;;;;5014152;28;20061;-73
2023/11/20 05:33:43;;;;;;;42.35;36.13;;;12.30;99.90;;;;;;5014565;28;20025;-73
2023/11/20 05:36:09;;;;;;;43.40;38.95;;;12.30;99.90;;;;;;5013929;28;20424;-73
2023/11/20 05:38:35;;;;;;;40.63;36.40;;;12.30;99.90;;;;;;5010206;28;20033;-73
2023/11/20 05:41:01;;;;;;;39.95;36.15;;;12.30;99.90;;;;;;4995201;28;20053;-73
2023/11/20 05:43:27;;;;;;;40.05;35.60;;;12.30;99.90;;;;;;4995078;28;20038;-73
2023/11/20 05:45:53;;;;;;;46.15;32.40;;;12.30;99.90;;;;;;4994103;28;20038;-73
2023/11/20 05:48:19;;;;;;;50.45;31.90;;;12.20;99.90;;;;;;4994821;28;20026;-73
2023/11/20 05:50:46;;;;;;;35.78;27.92;;;12.20;99.90;;;;;;4994236;28;20383;-73
2023/11/20 05:53:12;;;;;;;37.22;33.53;;;12.20;99.90;;;;;;4994637;28;20033;-73
2023/11/20 05:55:38;;;;;;;38.83;28.35;;;12.20;99.90;;;;;;4995563;28;20038;-73
2023/11/20 05:58:04;;;;;;;39.22;27.77;;;12.20;99.90;;;;;;5008126;28;20034;-73
2023/11/20 06:00:31;;;;;;;33.53;29.95;;;12.20;99.90;;;;;;5012898;28;20048;-73
2023/11/20 06:02:57;;;;;;;32.50;27.40;;;12.20;99.90;;;;;;5013910;28;20042;-73
2023/11/20 06:05:23;;;;;;;32.15;28.88;;;12.10;99.90;;;;;;5010991;28;20053;-68
2023/11/20 06:07:51;;;;;;;32.65;29.13;;;12.20;99.90;;;;;;5013785;28;20034;-67
2023/11/20 06:10:20;;;;;;;31.70;28.67;;;12.10;99.90;;;;;;5013517;28;20042;-68
2023/11/20 06:12:46;;;;;;;34.05;30.25;;;12.10;99.90;;;;;;5013978;28;20041;-68
2023/11/20 06:15:13;;;;;;;34.40;30.20;;;12.10;99.90;;;;;;5009994;28;20065;-67
2023/11/20 06:17:39;;;;;;;41.53;36.65;;;12.10;99.90;;;;;;5013372;28;20042;-68
2023/11/20 06:20:05;;;;;;;33.53;27.50;;;12.10;99.90;;;;;;5013556;28;20034;-68
2023/11/20 06:22:32;;;;;;;34.25;31.13;;;12.10;99.90;;;;;;5011528;28;20053;-67
2023/11/20 06:24:58;;;;;;;34.10;28.88;;;12.10;99.90;;;;;;4994910;28;20069;-67
2023/11/20 06:27:24;;;;;;;31.83;28.73;;;12.10;99.90;;;;;;5007784;28;20038;-68
2023/11/20 06:29:50;;;;;;;32.17;28.58;;;12.10;99.90;;;;;;5013245;28;20352;-67
2023/11/20 06:32:16;;;;;;;34.08;30.02;;;12.10;99.90;;;;;;5012258;28;20049;-68
2023/11/20 06:34:42;;;;;;;35.88;29.77;;;12.10;99.90;;;;;;5006953;28;20387;-68
2023/11/20 06:37:08;;;;;;;30.88;27.63;;;12.10;99.90;;;;;;4992992;28;20042;-68
2023/11/20 06:39:36;;;;;;;31.25;27.05;;;12.10;99.90;;;;;;5006721;28;20053;-68
2023/11/20 06:42:03;;;;;;;30.30;27.20;;;12.00;99.90;;;;;;5012170;28;20026;-68
2023/11/20 06:44:29;;;;;;;36.58;27.50;;;12.00;99.90;;;;;;4994064;28;20034;-67
2023/11/20 06:46:55;;;;;;;34.22;27.55;;;12.00;99.90;;;;;;4992460;28;20407;-68
2023/11/20 06:49:21;;;;;;;29.52;26.20;;;12.00;99.90;;;;;;4993007;28;20392;-68
2023/11/20 06:51:47;;;;;;;29.38;24.33;;;12.00;99.90;;;;;;4992961;28;20031;-67
2023/11/20 06:54:13;;;;;;;31.40;22.65;;;12.00;99.90;;;;;;4994445;28;20385;-67
2023/11/20 06:56:39;;;;;;;30.48;24.65;;;12.00;99.90;;;;;;4993530;28;20526;-67
2023/11/20 06:59:06;;;;;;;29.08;24.45;;;12.00;99.90;;;;;;4993582;28;20030;-67
2023/11/20 07:01:32;;;;;;;30.60;24.05;;;11.90;99.90;;;;;;4992733;28;20506;-67
2023/11/20 07:03:59;;;;;;;27.88;24.85;;;11.90;99.90;;;;;;5003678;28;20060;-67
2023/11/20 07:06:26;;;;;;;33.25;24.75;;;11.90;99.90;;;;;;5012447;28;20403;-68
2023/11/20 07:08:54;;;;;;;31.33;21.92;;;11.90;99.90;;;;;;5012917;28;20050;-68
2023/11/20 07:11:20;;;;;;;33.65;24.38;;;11.90;99.90;;;;;;5012682;28;20049;-67
2023/11/20 07:13:46;;;;;;;30.80;26.92;;;11.90;99.90;;;;;;5005216;28;20034;-68
2023/11/20 07:16:14;;;;;;;33.33;26.55;;;12.00;99.90;;;;;;5011489;28;20045;-67
2023/11/20 07:18:40;;;;;;;31.60;25.42;;;11.90;99.90;;;;;;5013135;28;20483;-73
2023/11/20 07:21:08;;;;;;;36.72;31.30;;;12.00;99.90;;;;;;5005660;28;20035;-73
2023/11/20 07:23:35;;;;;;;34.97;25.48;;;12.00;99.90;;;;;;4991093;28;20046;-73
2023/11/20 07:26:01;;;;;;;30.38;25.75;;;11.90;99.90;;;;;;4992989;28;20046;-73
2023/11/20 07:28:27;;;;;;;27.23;24.60;;;11.80;99.90;;;;;;4993294;28;20491;-73
2023/11/20 07:30:53;;;;;;;33.00;27.42;;;11.80;99.90;;;;;;4992177;28;20030;-72
2023/11/20 07:33:20;;;;;;;33.47;30.40;;;11.90;99.90;;;;;;4996220;28;20022;-73
2023/11/20 07:35:46;;;;;;;37.42;33.33;;;11.90;99.90;;;;;;5012161;28;20029;-73
2023/11/20 07:38:12;;;;;;;36.88;33.42;;;11.90;99.90;;;;;;4986811;28;20065;-73
2023/11/20 07:40:38;;;;;;;41.45;37.60;;;12.00;99.90;;;;;;4992020;28;20027;-73
2023/11/20 07:43:04;;;;;;;41.47;37.70;;;11.90;99.90;;;;;;4976149;28;20098;-73
2023/11/20 07:45:30;;;;;;;42.60;38.90;;;12.00;99.90;;;;;;4972651;28;20039;-73
2023/11/20 07:47:56;;;;;;;40.53;34.53;;;12.00;99.90;;;;;;4980903;28;20057;-71
2023/11/20 07:50:22;;;;;;;32.65;29.65;;;12.00;99.90;;;;;;4987269;28;20046;-73
2023/11/20 07:52:49;;;;;;;31.35;28.27;;;12.00;99.90;;;;;;4980431;28;20042;-73
2023/11/20 07:55:15;;;;;;;34.38;31.40;;;12.00;99.90;;;;;;4990666;28;20038;-73
2023/11/20 07:57:41;;;;;;;44.83;40.67;;;12.00;99.90;;;;;;4992578;28;20077;-73
2023/11/20 08:00:11;;;;;;;56.60;52.40;;;12.10;99.90;;;;;;4974900;28;20042;-73
2023/11/20 08:02:38;;;;;;;33.17;30.02;;;12.20;99.90;;;;;;4994655;28;20069;-73
2023/11/20 08:05:05;;;;;;;38.33;35.33;;;12.20;99.90;;;;;;4996835;28;20034;-73
2023/11/20 08:07:33;;;;;;;41.90;38.05;;;12.20;99.90;;;;;;4996846;28;20049;-73
2023/11/20 08:09:59;;;;;;;38.70;34.72;;;12.20;99.90;;;;;;4996759;28;20049;-73
2023/11/20 08:12:25;;;;;;;38.63;35.00;;;12.10;99.90;;;;;;4996171;28;20468;-73
2023/11/20 08:14:51;;;;;;;40.45;36.17;;;12.20;99.90;;;;;;4996319;28;20031;-73
2023/11/20 08:17:17;;;;;;;35.58;32.47;;;12.20;99.90;;;;;;4995576;28;20069;-73
2023/11/20 08:19:43;;;;;;;36.95;33.63;;;12.20;99.90;;;;;;4996340;28;20033;-73
2023/11/20 08:22:09;;;;;;;36.78;33.70;;;12.20;99.90;;;;;;4996052;28;20042;-71
2023/11/20 08:24:38;;;;;;;41.10;37.35;;;12.30;99.90;;;;;;4994713;28;20042;-71
2023/11/20 08:27:04;;;;;;;54.17;49.88;;;12.30;99.90;;;;;;5011237;28;20034;-71
2023/11/20 08:29:30;;;;;;;48.63;44.33;;;12.40;99.90;;;;;;5014880;28;20030;-71
2023/11/20 08:31:56;;;;;;;42.15;38.47;;;12.40;99.90;;;;;;5014465;28;20094;-71
2023/11/20 08:34:22;;;;;;;39.00;35.50;;;12.50;99.90;;;;;;5015500;28;20403;-71
2023/11/20 08:36:48;;;;;;;45.30;41.63;;;12.60;99.90;;;;;;5015228;28;20050;-71
2023/11/20 08:39:14;;;;;;;43.25;39.63;;;12.60;99.90;;;;;;5014454;28;20041;-70
2023/11/20 08:41:41;;;;;;;44.53;40.97;;;12.60;99.90;;;;;;5015046;28;20034;-71
2023/11/20 08:44:07;;;;;;;47.25;42.50;;;12.60;99.90;;;;;;5013546;28;20041;-71
2023/11/20 08:46:36;;;;;;;47.03;42.90;;;12.60;99.90;;;;;;5014546;28;20648;-71
2023/11/20 08:49:05;;;;;;;52.15;47.53;;;12.50;99.90;;;;;;5015398;28;20033;-70
2023/11/20 08:51:31;;;;;;;39.92;36.25;;;12.50;99.90;;;;;;5014881;28;20033;-71
2023/11/20 08:53:57;;;;;;;38.85;35.42;;;12.60;99.90;;;;;;4987331;28;20054;-70
2023/11/20 08:56:23;;;;;;;39.05;35.30;;;12.50;99.90;;;;;;4992832;28;20035;-71
2023/11/20 08:58:50;;;;;;;33.50;30.08;;;12.50;99.90;;;;;;4990601;28;20116;-71
2023/11/20 09:01:16;;;;;;;39.97;35.80;;;12.60;99.90;;;;;;4983814;28;20448;-72
2023/11/20 09:03:42;;;;;;;41.75;38.35;;;12.60;99.90;;;;;;4995247;28;20027;-71
2023/11/20 09:06:08;;;;;;;36.88;33.58;;;12.60;99.90;;;;;;4994925;28;20038;-71
2023/11/20 09:08:34;;;;;;;42.92;39.35;;;12.70;99.90;;;;;;4994852;28;20480;-71
2023/11/20 09:11:00;;;;;;;42.92;39.35;;;12.60;99.90;;;;;;4990283;28;20041;-71
2023/11/20 09:13:26;;;;;;;41.22;37.55;;;12.70;99.90;;;;;;4979053;28;20035;-71
2023/11/20 09:15:53;;;;;;;48.58;44.22;;;12.70;99.90;;;;;;4983912;28;20038;-71
2023/11/20 09:18:19;;;;;;;48.97;44.58;;;12.60;99.90;;;;;;4989060;28;20042;-71
2023/11/20 09:20:45;;;;;;;39.40;35.75;;;12.70;99.90;;;;;;4994131;28;20033;-71
2023/11/20 09:23:11;;;;;;;42.67;36.20;;;12.60;99.90;;;;;;4993411;28;20031;-72
2023/11/20 09:25:37;;;;;;;42.08;38.00;;;12.50;99.90;;;;;;4987604;28;20046;-68
2023/11/20 09:28:04;;;;;;;49.05;44.83;;;12.60;99.90;;;;;;4981973;28;20042;-68
2023/11/20 09:30:30;;;;;;;32.78;29.45;;;12.70;99.90;;;;;;4987379;28;20039;-68
2023/11/20 09:32:57;;;;;;;37.53;33.60;;;12.80;99.90;;;;;;4980702;28;20045;-69
2023/11/20 09:35:24;;;;;;;29.48;26.33;;;12.80;99.90;;;;;;4993112;28;20042;-68
2023/11/20 09:37:51;;;;;;;46.72;41.78;;;12.80;99.90;;;;;;4994504;28;20065;-68
2023/11/20 09:40:17;;;;;;;58.25;53.28;;;12.80;99.90;;;;;;4993084;28;20043;-68
2023/11/20 09:42:44;;;;;;;47.53;43.13;;;12.80;99.90;;;;;;4987423;28;20460;-68
2023/11/20 09:45:24;;;;;;;37.70;34.00;;;12.80;99.90;;;;;;4989923;28;20042;-68
2023/11/20 09:47:51;;;;;;;54.15;49.15;;;12.90;99.90;;;;;;4992640;28;20031;-68
2023/11/20 09:50:17;;;;;;;52.92;48.65;;;12.90;99.90;;;;;;4985145;28;20038;-68
2023/11/20 09:52:44;;;;;;;59.50;55.00;;;13.00;99.90;;;;;;4988431;28;20037;-68
2023/11/20 09:55:10;;;;;;;34.13;29.95;;;13.00;99.90;;;;;;4991794;28;20042;-67
2023/11/20 09:57:36;;;;;;;39.40;36.20;;;13.10;99.90;;;;;;4976344;28;20051;-67
2023/11/20 10:00:02;;;;;;;36.63;32.95;;;13.10;99.90;;;;;;4975436;28;20038;-68
2023/11/20 10:02:28;;;;;;;45.95;42.72;;;13.00;99.90;;;;;;4991149;28;20044;-67
2023/11/20 10:04:54;;;;;;;48.85;45.03;;;13.00;99.90;;;;;;4994456;28;20031;-67
2023/11/20 10:07:23;;;;;;;35.25;31.80;;;13.00;99.90;;;;;;4993357;28;20038;-67
2023/11/20 10:09:52;;;;;;;42.60;39.22;;;13.10;99.90;;;;;;4992510;28;20037;-68
2023/11/20 10:12:18;;;;;;;49.70;45.47;;;13.10;99.90;;;;;;4987724;28;20030;-69
2023/11/20 10:14:45;;;;;;;46.88;43.00;;;13.20;99.90;;;;;;4974776;28;20038;-70
2023/11/20 10:17:14;;;;;;;50.17;45.83;;;13.20;99.90;;;;;;4988322;28;20050;-69
2023/11/20 10:19:40;;;;;;;47.78;44.22;;;13.20;99.90;;;;;;4982751;28;20027;-68
2023/11/20 10:22:07;;;;;;;50.78;46.67;;;13.10;99.90;;;;;;5005755;28;20053;-69
2023/11/20 10:24:33;;;;;;;65.25;60.63;;;13.10;99.90;;;;;;4993941;28;20526;-69
2023/11/20 10:26:59;;;;;;;57.35;53.25;;;13.10;99.90;;;;;;4993062;28;20041;-68
2023/11/20 10:29:25;;;;;;;50.17;46.05;;;13.10;99.90;;;;;;4989249;28;20031;-68
2023/11/20 10:31:55;;;;;;;46.55;42.92;;;13.00;99.90;;;;;;4986567;28;20046;-72
2023/11/20 10:34:21;;;;;;;77.82;73.05;;;12.90;99.90;;;;;;4989887;28;20419;-71
2023/11/20 10:37:04;;;;;;;65.50;60.65;;;12.90;99.90;;;;;;4987421;28;20486;-73
2023/11/20 10:39:30;;;;;;;67.00;62.00;;;12.80;99.90;;;;;;4985518;28;20045;-74
2023/11/20 10:41:57;;;;;;;50.72;47.25;;;12.80;99.90;;;;;;4992244;28;20035;-74
2023/11/20 10:44:25;;;;;;;59.97;55.45;;;12.70;99.90;;;;;;4973691;28;20046;-73
2023/11/20 10:46:53;;;;;;;62.75;58.15;;;12.70;99.90;;;;;;4992994;28;20042;-73
2023/11/20 10:49:22;;;;;;;63.38;58.85;;;12.70;99.90;;;;;;4993843;28;20038;-73
2023/11/20 10:51:57;;;;;;;49.47;45.60;;;12.70;99.90;;;;;;4984726;28;20022;-73
2023/11/20 10:54:28;;;;;;;62.40;57.83;;;12.70;99.90;;;;;;4992459;28;20030;-73
2023/11/20 10:56:56;;;;;;;;;;;12.70;99.90;;;;;;4991574;28;20042;-73
2023/11/20 10:59:23;;;;;;;46.40;42.83;;;12.70;99.90;;;;;;4992179;28;20286;-73
2023/11/20 11:01:50;;;;;;;56.80;53.05;;;12.80;99.90;;;;;;4990744;28;20391;-73
2023/11/20 11:04:16;;;;;;;63.83;59.17;;;12.80;99.90;;;;;;4993076;28;20038;-73
2023/11/20 11:06:42;;;;;;;44.50;40.90;;;12.80;99.90;;;;;;4991905;28;20030;-73
2023/11/20 11:09:08;;;;;;;46.33;42.40;;;12.80;99.90;;;;;;4980773;28;20043;-73
2023/11/20 11:11:34;;;;;;;38.38;35.17;;;12.90;99.90;;;;;;4990043;28;20038;-73
2023/11/20 11:14:01;;;;;;;56.38;51.63;;;12.90;99.90;;;;;;4993273;28;20395;-73
2023/11/20 11:16:43;;;;;;;41.80;36.55;;;12.90;99.90;;;;;;4992437;28;20042;-73
2023/11/20 11:19:16;;;;;;;40.97;37.15;;;12.90;99.90;;;;;;4991640;28;20042;-73
2023/11/20 11:22:03;;;;;;;42.83;38.70;;;12.90;99.90;;;;;;4992374;28;20377;-73
2023/11/20 11:24:33;;;;;;;48.20;44.40;;;12.80;99.90;;;;;;4986967;28;20050;-73
2023/11/20 11:27:04;;;;;;;41.45;38.03;;;12.90;99.90;;;;;;4988334;28;20043;-72
2023/11/20 11:29:38;;;;;;;47.75;44.13;;;12.90;99.90;;;;;;4986272;28;20019;-72
2023/11/20 11:32:25;;;;;;;43.03;39.70;;;13.00;99.90;;;;;;4982717;28;20050;-73
2023/11/20 11:35:29;;;;;;;50.45;46.80;;;13.00;99.90;;;;;;4987437;28;20062;-70
2023/11/20 11:38:18;;;;;;;51.25;46.95;;;13.00;99.90;;;;;;4980862;28;20042;-70
2023/11/20 11:41:09;;;;;;;54.60;49.97;;;13.10;99.90;;;;;;4978304;28;20030;-70
2023/11/20 11:44:14;;;;;;;54.90;50.92;;;13.10;99.90;;;;;;4991436;28;20042;-70
2023/11/20 11:46:43;;;;;;;52.53;48.08;;;13.20;99.90;;;;;;4954508;28;20035;-67
2023/11/20 11:49:14;;;;;;;60.47;55.30;;;13.20;99.90;;;;;;4956977;28;20513;-67
2023/11/20 11:51:42;;;;;;;;;;;13.30;99.90;;;;;;4962151;28;20411;-69
2023/11/20 11:54:15;;;;;;;113.20;105.55;;;13.30;99.90;;;;;;4968245;28;20299;-69
2023/11/20 11:56:50;;;;;;;130.68;122.70;;;13.40;99.90;;;;;;4954945;28;20047;-70
2023/11/20 11:59:26;;;;;;;68.38;63.28;;;13.50;99.90;;;;;;4969480;28;20050;-69
2023/11/20 12:01:52;;;;;;;107.57;100.15;;;13.50;99.90;;;;;;4966427;28;20043;-69
2023/11/20 12:04:49;;;;;;;131.93;123.70;;;13.60;99.90;;;;;;4960948;28;20426;-69
2023/11/20 12:07:15;;;;;;;119.10;111.45;;;13.70;99.90;;;;;;4964305;28;20488;-69
2023/11/20 12:09:54;;;;;;;133.27;124.65;;;13.70;99.90;;;;;;4962544;28;20035;-69
2023/11/20 12:12:20;;;;;;;146.68;137.77;;;13.80;99.90;;;;;;4950703;28;20042;-69
2023/11/20 12:14:46;;;;;;;130.13;122.03;;;13.80;99.90;;;;;;4950528;28;20035;-69
2023/11/20 12:17:14;;;;;;;118.50;111.30;;;13.90;99.90;;;;;;4966834;28;20043;-69
2023/11/20 12:19:40;;;;;;;126.72;118.80;;;13.80;99.90;;;;;;4979338;28;20034;-70
2023/11/20 12:22:08;;;;;;;115.97;108.40;;;13.80;99.90;;;;;;4989999;28;20085;-69
2023/11/20 12:24:35;;;;;;;124.85;117.35;;;13.80;99.90;;;;;;4991834;28;20073;-69
2023/11/20 12:27:02;;;;;;;113.07;105.78;;;13.90;99.90;;;;;;4980336;28;20046;-69
2023/11/20 12:29:28;;;;;;;126.00;118.53;;;13.90;99.90;;;;;;4988407;28;20046;-69